Rizokarpason, Cyprus
Current Conditions -  °F | °C
As of 12:20 AM on Friday 24 Oct 2014 (Local Time) from LCEN Reporting Station
Few Clouds Few Clouds  
Wind Chill: 17°   Ceiling: Unl
Heat Index: 17°   Visibility: 6mi
Dew Point: 12°   Wind: 3mph
Humidity: 72%   Direction: 70°ENE
Pressure: 30"   Gusts: NA
Location:  35.58°N, 34.4°E
Report Text: LCEN 232120Z 07003KT 9999 FEW025 17/12 Q1016 NOSIG
Loading
Personal Weather Stations






























Interactive Weather Map
Tropical Storm Tracking
New forecast layout! Learn more

10-Day Weather Forecast

Advertisements
Track Severe Weather on mobile